createdAt,value
2022-10-09T00:01:25.246Z,9.82
2022-10-09T00:03:54.958Z,8.52
2022-10-09T00:06:28.827Z,20.17
2022-10-09T00:08:56.619Z,12.75
2022-10-09T00:11:27.303Z,12.55
2022-10-09T00:13:55.228Z,8.73
2022-10-09T00:16:23.431Z,8.23
2022-10-09T00:18:51.807Z,7.60
2022-10-09T00:21:28.235Z,9.85
2022-10-09T00:23:57.716Z,6.30
2022-10-09T00:26:26.084Z,8.07
2022-10-09T00:28:54.130Z,7.93
2022-10-09T00:31:22.248Z,7.53
2022-10-09T00:33:50.411Z,32.50
2022-10-09T00:36:20.399Z,20.13
2022-10-09T00:41:16.880Z,14.48
2022-10-09T00:43:50.537Z,14.05
2022-10-09T00:46:33.857Z,18.98
2022-10-09T00:49:21.471Z,9.82
2022-10-09T00:51:51.859Z,9.50
2022-10-09T00:54:23.070Z,9.77
2022-10-09T00:56:51.086Z,9.80
2022-10-09T00:59:19.165Z,8.80
2022-10-09T01:01:47.268Z,12.38
2022-10-09T01:04:15.279Z,11.98
2022-10-09T01:07:07.967Z,14.15
2022-10-09T01:10:09.249Z,6.85
2022-10-09T01:12:42.164Z,7.10
2022-10-09T01:15:20.957Z,8.77
2022-10-09T01:17:52.354Z,4.70
2022-10-09T01:20:39.167Z,8.32
2022-10-09T01:23:41.470Z,7.25
2022-10-09T01:26:25.993Z,11.48
2022-10-09T01:28:59.292Z,5.47
2022-10-09T01:31:31.279Z,7.93
2022-10-09T01:34:00.261Z,11.02
2022-10-09T01:36:31.178Z,9.52
2022-10-09T01:39:01.653Z,8.93
2022-10-09T01:41:29.648Z,6.45
2022-10-09T01:43:56.996Z,6.28
2022-10-09T01:46:32.988Z,4.65
2022-10-09T01:49:23.041Z,3.80
2022-10-09T01:51:56.515Z,12.90
2022-10-09T01:54:31.491Z,6.38
2022-10-09T01:57:02.841Z,8.20
2022-10-09T01:59:32.095Z,5.65
2022-10-09T02:02:00.376Z,8.18
2022-10-09T02:04:34.534Z,6.85
2022-10-09T02:07:02.900Z,7.05
2022-10-09T02:09:31.628Z,11.95
2022-10-09T02:12:04.956Z,7.80
2022-10-09T02:14:32.749Z,6.10
2022-10-09T02:17:30.045Z,8.75
2022-10-09T02:20:14.568Z,3.13
2022-10-09T02:22:42.471Z,8.32
2022-10-09T02:25:10.150Z,24.02
2022-10-09T02:27:37.855Z,34.38
2022-10-09T02:30:09.336Z,9.75
2022-10-09T02:32:36.891Z,15.02
2022-10-09T02:35:04.593Z,20.63
2022-10-09T02:37:32.417Z,26.70
2022-10-09T02:40:00.136Z,17.65
2022-10-09T02:42:27.795Z,19.55
2022-10-09T02:44:55.793Z,26.73
2022-10-09T02:47:24.094Z,29.42
2022-10-09T02:49:51.703Z,45.50
2022-10-09T02:52:19.389Z,28.33
2022-10-09T02:54:48.331Z,28.38
2022-10-09T02:57:16.281Z,28.10
2022-10-09T02:59:43.935Z,17.40
2022-10-09T03:02:11.798Z,8.80
2022-10-09T03:04:39.343Z,10.93
2022-10-09T03:07:07.126Z,15.38
2022-10-09T03:09:34.912Z,23.80
2022-10-09T03:12:02.674Z,33.10
2022-10-09T03:14:30.434Z,39.53
2022-10-09T03:16:58.196Z,36.58
2022-10-09T03:19:25.912Z,42.90
2022-10-09T03:21:53.574Z,50.20
2022-10-09T03:24:21.321Z,11.15
2022-10-09T03:26:49.578Z,46.65
2022-10-09T03:29:17.401Z,29.15
2022-10-09T03:31:53.493Z,34.13
2022-10-09T03:36:49.124Z,11.00
2022-10-09T03:39:16.541Z,58.58
2022-10-09T03:41:44.377Z,105.40
2022-10-09T03:44:12.044Z,77.32
2022-10-09T03:46:39.546Z,67.68
2022-10-09T03:49:08.152Z,44.58
2022-10-09T03:51:36.390Z,17.23
2022-10-09T03:54:04.029Z,32.15
2022-10-09T03:56:31.460Z,30.17
2022-10-09T03:58:59.156Z,28.00
2022-10-09T04:01:26.721Z,23.88
2022-10-09T04:03:54.587Z,7.78
2022-10-09T04:06:22.117Z,6.50
2022-10-09T04:08:49.683Z,11.80
2022-10-09T04:11:17.219Z,9.68
2022-10-09T04:13:44.761Z,7.82
2022-10-09T04:16:12.961Z,9.88
2022-10-09T04:18:43.652Z,9.77
2022-10-09T04:21:12.914Z,10.80
2022-10-09T04:23:40.791Z,26.02
2022-10-09T04:26:08.284Z,13.02
2022-10-09T04:28:35.952Z,25.10
2022-10-09T04:31:03.685Z,31.85
2022-10-09T04:33:31.768Z,49.80
2022-10-09T04:35:59.620Z,35.97
2022-10-09T04:38:29.092Z,86.38
2022-10-09T04:41:06.079Z,87.00
2022-10-09T04:43:35.016Z,83.95
2022-10-09T04:46:12.343Z,95.57
2022-10-09T04:48:41.598Z,86.40
2022-10-09T04:51:10.509Z,71.93
2022-10-09T04:53:38.453Z,63.00
2022-10-09T04:56:10.823Z,75.57
2022-10-09T04:58:41.962Z,94.60
2022-10-09T05:01:22.174Z,84.07
2022-10-09T05:03:49.823Z,48.95
2022-10-09T05:06:18.782Z,4.55
2022-10-09T05:08:46.642Z,3.35
2022-10-09T05:11:16.503Z,52.92
2022-10-09T05:14:40.023Z,52.33
2022-10-09T05:17:15.282Z,14.68
2022-10-09T05:19:43.698Z,10.38
2022-10-09T05:22:11.189Z,27.10
2022-10-09T05:24:38.784Z,37.95
2022-10-09T05:27:06.490Z,15.80
2022-10-09T05:29:34.024Z,24.13
2022-10-09T05:32:01.707Z,10.43
2022-10-09T05:34:29.298Z,6.47
2022-10-09T05:36:57.077Z,17.83
2022-10-09T05:39:24.825Z,14.70
2022-10-09T05:41:52.433Z,13.60
2022-10-09T05:44:20.238Z,5.88
2022-10-09T05:46:47.945Z,11.50
2022-10-09T05:49:15.598Z,3.25
2022-10-09T05:51:43.442Z,6.38
2022-10-09T05:54:15.228Z,9.02
2022-10-09T05:56:43.253Z,6.25
2022-10-09T05:59:18.968Z,5.70
2022-10-09T06:01:48.855Z,13.02
2022-10-09T06:04:24.633Z,6.97
2022-10-09T06:06:52.331Z,13.27
2022-10-09T06:09:23.081Z,5.55
2022-10-09T06:11:53.913Z,14.80
2022-10-09T06:14:23.149Z,6.07
2022-10-09T06:16:50.956Z,17.30
2022-10-09T06:19:20.053Z,6.95
2022-10-09T06:21:47.852Z,13.10
2022-10-09T06:24:26.987Z,3.53
2022-10-09T06:26:56.306Z,16.38
2022-10-09T06:29:24.142Z,7.90
2022-10-09T06:31:51.477Z,12.07
2022-10-09T06:34:19.177Z,13.13
2022-10-09T06:36:46.942Z,9.65
2022-10-09T06:39:14.564Z,2.63
2022-10-09T06:41:42.184Z,7.88
2022-10-09T06:44:16.685Z,6.70
2022-10-09T06:46:45.216Z,8.80
2022-10-09T06:49:13.258Z,7.95
2022-10-09T06:51:40.911Z,7.07
2022-10-09T06:54:13.369Z,5.95
2022-10-09T06:56:41.182Z,17.77
2022-10-09T06:59:09.880Z,5.10
2022-10-09T07:01:37.793Z,7.70
2022-10-09T07:04:07.709Z,8.57
2022-10-09T07:06:38.017Z,7.07
2022-10-09T07:09:08.297Z,6.57
2022-10-09T07:11:37.917Z,5.32
2022-10-09T07:14:07.359Z,7.50
2022-10-09T07:16:40.877Z,5.53
2022-10-09T07:19:11.270Z,2.95
2022-10-09T07:21:40.788Z,8.70
2022-10-09T07:24:08.235Z,4.95
2022-10-09T07:26:38.124Z,2.35
2022-10-09T07:29:07.014Z,10.30
2022-10-09T07:31:34.757Z,8.02
2022-10-09T07:34:02.936Z,8.25
2022-10-09T07:36:31.033Z,14.88
2022-10-09T07:38:59.583Z,6.93
2022-10-09T07:41:29.997Z,13.20
2022-10-09T07:43:57.861Z,7.30
2022-10-09T07:46:30.785Z,4.93
2022-10-09T07:49:00.925Z,12.85
2022-10-09T07:51:29.337Z,9.75
2022-10-09T07:53:59.210Z,6.72
2022-10-09T07:56:29.577Z,13.90
2022-10-09T07:59:03.327Z,9.95
2022-10-09T08:01:32.165Z,10.55
2022-10-09T08:04:00.682Z,8.40
2022-10-09T08:06:29.126Z,9.80
2022-10-09T08:08:58.283Z,8.63
2022-10-09T08:11:27.564Z,14.20
2022-10-09T08:13:56.264Z,8.88
2022-10-09T08:16:25.584Z,7.63
2022-10-09T08:19:00.871Z,7.95
2022-10-09T08:21:28.871Z,10.07
2022-10-09T08:23:58.384Z,6.72
2022-10-09T08:26:26.712Z,8.25
2022-10-09T08:29:02.467Z,6.05
2022-10-09T08:31:32.066Z,11.07
2022-10-09T08:34:01.944Z,4.80
2022-10-09T08:36:29.741Z,10.80
2022-10-09T08:38:57.474Z,6.20
2022-10-09T08:41:42.700Z,18.92
2022-10-09T08:44:31.843Z,11.07
2022-10-09T08:47:20.018Z,6.95
2022-10-09T08:50:25.890Z,13.93
2022-10-09T08:53:19.605Z,8.43
2022-10-09T08:56:02.135Z,16.45
2022-10-09T08:58:39.260Z,14.18
2022-10-09T09:01:12.785Z,7.63
2022-10-09T09:03:58.625Z,9.27
2022-10-09T09:06:32.003Z,21.70
2022-10-09T09:09:27.697Z,25.63
2022-10-09T09:12:04.327Z,53.15
2022-10-09T09:14:32.480Z,17.48
2022-10-09T09:17:07.123Z,9.65
2022-10-09T09:19:40.165Z,15.48
2022-10-09T09:22:13.821Z,17.08
2022-10-09T09:24:58.092Z,12.68
2022-10-09T09:27:31.202Z,46.53
2022-10-09T09:30:04.831Z,12.75
2022-10-09T09:32:33.745Z,18.27
2022-10-09T09:35:16.258Z,86.18
2022-10-09T09:37:43.747Z,81.82
2022-10-09T09:40:36.632Z,80.13
2022-10-09T09:43:12.351Z,47.50
2022-10-09T09:45:40.039Z,16.73
2022-10-09T09:48:12.481Z,50.40
2022-10-09T09:50:50.500Z,60.72
2022-10-09T09:53:30.676Z,70.03
2022-10-09T09:55:58.540Z,76.30
2022-10-09T09:58:34.050Z,42.58
2022-10-09T10:01:03.786Z,48.70
2022-10-09T10:03:32.852Z,54.83
2022-10-09T10:06:00.436Z,29.98
2022-10-09T10:08:33.492Z,33.65
2022-10-09T10:11:07.236Z,53.20
2022-10-09T10:13:39.465Z,64.10
2022-10-09T10:16:08.932Z,7.20
2022-10-09T10:18:42.330Z,52.33
2022-10-09T10:21:15.712Z,27.92
2022-10-09T10:24:03.655Z,5.20
2022-10-09T10:26:47.128Z,43.70
2022-10-09T10:29:29.365Z,7.63
2022-10-09T10:34:38.897Z,3.42
2022-10-09T10:37:15.497Z,7.07
2022-10-09T10:39:46.278Z,3.92
2022-10-09T10:42:25.664Z,6.32
2022-10-09T10:45:11.495Z,4.55
2022-10-09T10:47:45.201Z,8.55
2022-10-09T10:50:17.359Z,5.07
2022-10-09T10:52:58.186Z,7.40
2022-10-09T10:55:34.187Z,7.20
2022-10-09T10:58:07.964Z,9.68
2022-10-09T11:00:39.434Z,10.07
2022-10-09T11:03:44.661Z,12.90
2022-10-09T11:06:44.200Z,4.55
2022-10-09T11:09:31.225Z,20.00
2022-10-09T11:12:43.371Z,3.50
2022-10-09T11:15:30.983Z,2.78
2022-10-09T11:18:10.273Z,4.82
2022-10-09T11:20:47.560Z,3.22
2022-10-09T11:23:20.960Z,4.82
2022-10-09T11:26:23.289Z,3.58
2022-10-09T11:28:59.540Z,15.02
2022-10-09T11:31:43.512Z,4.90
2022-10-09T11:34:17.446Z,13.68
2022-10-09T11:36:46.074Z,8.45
2022-10-09T11:39:18.353Z,13.88
2022-10-09T11:41:47.022Z,9.23
2022-10-09T11:44:17.721Z,12.00
2022-10-09T11:47:09.418Z,8.10
2022-10-09T11:49:43.423Z,15.07
2022-10-09T11:52:17.162Z,8.88
2022-10-09T11:54:44.812Z,15.13
2022-10-09T11:57:15.251Z,5.63
2022-10-09T11:59:43.581Z,10.23
2022-10-09T12:02:27.736Z,4.68
2022-10-09T12:04:55.974Z,18.50
2022-10-09T12:07:28.865Z,5.90
2022-10-09T12:10:32.635Z,4.53
2022-10-09T12:13:06.287Z,14.35
2022-10-09T12:15:52.561Z,7.00
2022-10-09T12:18:41.473Z,18.75
2022-10-09T12:21:29.226Z,8.73
2022-10-09T12:23:56.972Z,7.57
2022-10-09T12:26:26.219Z,10.73
2022-10-09T12:28:59.566Z,5.53
2022-10-09T12:31:35.963Z,5.85
2022-10-09T12:34:06.101Z,3.97
2022-10-09T12:36:34.261Z,6.53
2022-10-09T12:39:24.591Z,7.85
2022-10-09T12:41:55.975Z,68.93
2022-10-09T12:44:38.605Z,83.32
2022-10-09T12:47:10.524Z,56.20
2022-10-09T12:49:38.575Z,91.90
2022-10-09T12:52:16.460Z,97.80
2022-10-09T12:54:45.223Z,88.90
2022-10-09T12:57:16.102Z,76.88
2022-10-09T12:59:44.880Z,64.68
2022-10-09T13:02:17.273Z,73.97
2022-10-09T13:05:01.155Z,71.38
2022-10-09T13:07:30.158Z,58.10
2022-10-09T13:10:06.098Z,58.63
2022-10-09T13:12:34.949Z,57.70
2022-10-09T13:15:28.432Z,34.80
2022-10-09T13:17:56.236Z,35.05
2022-10-09T13:20:24.061Z,21.90
2022-10-09T13:22:56.364Z,31.92
2022-10-09T13:25:29.234Z,59.40
2022-10-09T13:27:58.268Z,59.28
2022-10-09T13:30:27.230Z,42.65
2022-10-09T13:32:55.066Z,12.82
2022-10-09T13:35:22.827Z,4.20
2022-10-09T13:37:51.186Z,28.73
2022-10-09T13:40:21.862Z,77.20
2022-10-09T13:42:52.680Z,73.95
2022-10-09T13:45:20.472Z,86.80
2022-10-09T13:47:48.525Z,86.03
2022-10-09T13:50:16.578Z,72.50
2022-10-09T13:52:44.270Z,38.70
2022-10-09T13:55:12.141Z,67.82
2022-10-09T13:57:39.965Z,58.63
2022-10-09T14:00:08.045Z,63.50
2022-10-09T14:02:35.876Z,65.10
2022-10-09T14:05:03.642Z,53.15
2022-10-09T14:07:31.469Z,66.03
2022-10-09T14:10:01.968Z,64.57
2022-10-09T14:12:29.810Z,67.35
2022-10-09T14:14:58.532Z,81.32
2022-10-09T14:17:26.306Z,82.00
2022-10-09T14:19:54.190Z,66.95
2022-10-09T14:22:21.950Z,74.35
2022-10-09T14:24:49.915Z,83.65
2022-10-09T14:27:17.910Z,84.97
2022-10-09T14:29:45.549Z,83.97
2022-10-09T14:32:13.256Z,86.97
2022-10-09T14:34:41.147Z,79.25
2022-10-09T14:37:18.730Z,87.82
2022-10-09T14:39:46.969Z,82.80
2022-10-09T14:42:14.740Z,80.38
2022-10-09T14:44:42.552Z,75.18
2022-10-09T14:47:10.217Z,85.22
2022-10-09T14:49:37.976Z,81.97
2022-10-09T14:52:05.781Z,80.10
2022-10-09T14:54:33.614Z,82.75
2022-10-09T14:57:01.520Z,78.47
2022-10-09T14:59:30.681Z,82.70
2022-10-09T15:02:01.407Z,82.75
2022-10-09T15:04:29.146Z,90.68
2022-10-09T15:06:57.125Z,91.80
2022-10-09T15:09:25.148Z,86.80
2022-10-09T15:11:53.114Z,57.08
2022-10-09T15:14:22.073Z,73.75
2022-10-09T15:16:50.026Z,79.85
2022-10-09T15:19:17.908Z,80.35
2022-10-09T15:21:45.540Z,85.57
2022-10-09T15:24:13.525Z,81.18
2022-10-09T15:26:42.059Z,75.07
2022-10-09T15:29:09.923Z,77.47
2022-10-09T15:31:39.700Z,89.90
2022-10-09T15:34:08.156Z,93.43
2022-10-09T15:36:38.628Z,99.57
2022-10-09T15:39:08.932Z,93.07
2022-10-09T15:41:38.614Z,99.28
2022-10-09T15:44:07.985Z,91.53
2022-10-09T15:46:35.819Z,104.57
2022-10-09T15:49:03.599Z,104.95
2022-10-09T15:51:33.262Z,105.43
2022-10-09T15:54:01.457Z,90.68
2022-10-09T15:56:29.996Z,67.22
2022-10-09T15:58:58.382Z,91.55
2022-10-09T16:01:26.366Z,97.78
2022-10-09T16:03:54.056Z,95.40
2022-10-09T16:06:23.730Z,90.00
2022-10-09T16:08:52.031Z,92.80
2022-10-09T16:11:21.919Z,103.30
2022-10-09T16:13:55.315Z,108.07
2022-10-09T16:16:25.295Z,103.20
2022-10-09T16:18:53.293Z,107.43
2022-10-09T16:21:25.574Z,109.70
2022-10-09T16:23:58.111Z,56.80
2022-10-09T16:26:27.940Z,91.55
2022-10-09T16:28:58.838Z,112.40
2022-10-09T16:31:30.289Z,84.68
2022-10-09T16:33:58.505Z,109.75
2022-10-09T16:36:26.567Z,112.53
2022-10-09T16:38:56.838Z,125.00
2022-10-09T16:41:26.802Z,107.15
2022-10-09T16:43:55.747Z,106.82
2022-10-09T16:46:26.035Z,104.90
2022-10-09T16:48:54.553Z,107.10
2022-10-09T16:51:31.043Z,110.90
2022-10-09T16:54:01.734Z,103.13
2022-10-09T16:56:34.607Z,81.43
2022-10-09T16:59:04.689Z,107.82
2022-10-09T17:01:32.839Z,100.15
2022-10-09T17:04:01.190Z,85.30
2022-10-09T17:06:28.924Z,71.05
2022-10-09T17:08:58.464Z,115.47
2022-10-09T17:11:27.085Z,100.40
2022-10-09T17:13:56.921Z,108.93
2022-10-09T17:18:55.472Z,82.40
2022-10-09T17:21:23.432Z,112.22
2022-10-09T17:23:54.709Z,105.40
2022-10-09T17:26:24.887Z,116.18
2022-10-09T17:28:52.744Z,116.15
2022-10-09T17:31:23.384Z,48.75
2022-10-09T17:33:55.371Z,49.90
2022-10-09T17:36:24.501Z,100.65
2022-10-09T17:38:52.232Z,95.25
2022-10-09T17:41:23.884Z,106.47
2022-10-09T17:43:56.010Z,107.45
2022-10-09T17:46:24.813Z,101.57
2022-10-09T17:48:56.843Z,112.10
2022-10-09T17:51:30.133Z,66.85
2022-10-09T17:54:01.170Z,52.00
2022-10-09T17:56:32.358Z,79.00
2022-10-09T17:59:01.265Z,120.95
2022-10-09T18:01:29.174Z,52.13
2022-10-09T18:03:57.653Z,81.55
2022-10-09T18:06:25.360Z,64.93
2022-10-09T18:08:54.223Z,113.68
2022-10-09T18:11:22.781Z,107.85
2022-10-09T18:13:54.480Z,105.60
2022-10-09T18:16:31.454Z,27.80
2022-10-09T18:19:12.309Z,106.50
2022-10-09T18:21:42.086Z,33.55
2022-10-09T18:24:09.843Z,115.50
2022-10-09T18:26:37.549Z,108.32
2022-10-09T18:29:05.485Z,90.43
2022-10-09T18:31:34.617Z,97.13
2022-10-09T18:34:02.773Z,103.13
2022-10-09T18:36:34.906Z,113.97
2022-10-09T18:39:10.085Z,65.30
2022-10-09T18:41:38.064Z,110.97
2022-10-09T18:44:07.494Z,115.90
2022-10-09T18:46:38.582Z,92.45
2022-10-09T18:49:10.755Z,45.65
2022-10-09T18:51:44.524Z,6.25
2022-10-09T18:54:18.120Z,4.50
2022-10-09T18:56:46.636Z,5.93
2022-10-09T18:59:16.912Z,46.00
2022-10-09T19:01:47.109Z,79.53
2022-10-09T19:04:15.447Z,66.25
2022-10-09T19:06:43.072Z,102.80
2022-10-09T19:09:11.140Z,127.60
2022-10-09T19:11:39.134Z,123.88
2022-10-09T19:14:08.844Z,130.65
2022-10-09T19:16:36.731Z,138.90
2022-10-09T19:19:04.771Z,140.75
2022-10-09T19:21:32.370Z,132.75
2022-10-09T19:24:06.346Z,131.20
2022-10-09T19:26:35.450Z,133.23
2022-10-09T19:29:03.996Z,133.32
2022-10-09T19:31:32.368Z,23.63
2022-10-09T19:34:05.246Z,106.45
2022-10-09T19:36:33.411Z,116.00
2022-10-09T19:39:01.867Z,118.50
2022-10-09T19:41:29.817Z,113.82
2022-10-09T19:43:57.687Z,42.67
2022-10-09T19:46:25.448Z,143.05
2022-10-09T19:48:53.524Z,9.32
2022-10-09T19:51:23.702Z,3.50
2022-10-09T19:53:53.522Z,4.03
2022-10-09T19:56:22.345Z,4.32
2022-10-09T19:58:50.282Z,3.88
2022-10-09T20:01:22.269Z,3.42
2022-10-09T20:03:58.073Z,5.45
2022-10-09T20:06:26.077Z,7.72
2022-10-09T20:08:56.206Z,2.58
2022-10-09T20:11:25.726Z,3.53
2022-10-09T20:13:56.652Z,3.40
2022-10-09T20:16:25.452Z,4.40
2022-10-09T20:18:55.133Z,4.45
2022-10-09T20:21:23.058Z,4.90
2022-10-09T20:23:50.842Z,3.95
2022-10-09T20:26:20.810Z,7.47
2022-10-09T20:31:18.881Z,9.63
2022-10-09T20:33:48.197Z,6.20
2022-10-09T20:36:26.073Z,6.05
2022-10-09T20:38:56.147Z,2.85
2022-10-09T20:41:24.154Z,3.38
2022-10-09T20:43:53.350Z,3.83
2022-10-09T20:46:24.116Z,3.90
2022-10-09T20:48:52.579Z,3.38
2022-10-09T20:51:20.689Z,3.92
2022-10-09T20:53:56.172Z,3.88
2022-10-09T20:56:25.376Z,4.07
2022-10-09T20:58:53.159Z,4.53
2022-10-09T21:01:20.926Z,4.18
2022-10-09T21:03:49.242Z,2.78
2022-10-09T21:06:19.601Z,3.28
2022-10-09T21:08:47.394Z,5.40
2022-10-09T21:11:17.831Z,3.40
2022-10-09T21:13:47.370Z,3.67
2022-10-09T21:16:19.256Z,2.75
2022-10-09T21:18:47.332Z,4.72
2022-10-09T21:21:17.660Z,2.80
2022-10-09T21:23:45.992Z,2.10
2022-10-09T21:26:18.506Z,4.25
2022-10-09T21:28:46.943Z,4.03
2022-10-09T21:31:22.894Z,3.72
2022-10-09T21:33:51.332Z,3.28
2022-10-09T21:36:23.678Z,3.95
2022-10-09T21:38:51.499Z,3.13
2022-10-09T21:41:19.397Z,5.82
2022-10-09T21:43:47.081Z,3.53
2022-10-09T21:46:15.044Z,4.90
2022-10-09T21:48:43.012Z,4.72
2022-10-09T21:51:10.827Z,4.40
2022-10-09T21:53:38.382Z,5.20
2022-10-09T21:56:09.984Z,4.93
2022-10-09T21:58:40.618Z,3.72
2022-10-09T22:01:08.419Z,3.83
2022-10-09T22:03:36.771Z,3.30
2022-10-09T22:06:07.129Z,4.00
2022-10-09T22:08:35.428Z,3.78
2022-10-09T22:11:10.214Z,5.13
2022-10-09T22:13:39.308Z,5.18
2022-10-09T22:16:12.216Z,3.33
2022-10-09T22:18:43.971Z,5.65
2022-10-09T22:21:13.840Z,5.57
2022-10-09T22:23:41.942Z,3.55
2022-10-09T22:26:13.368Z,2.95
2022-10-09T22:28:41.481Z,2.90
2022-10-09T22:31:13.885Z,3.67
2022-10-09T22:33:41.796Z,5.22
2022-10-09T22:36:17.691Z,4.82
2022-10-09T22:38:45.749Z,4.05
2022-10-09T22:41:18.619Z,3.80
2022-10-09T22:43:49.507Z,8.32
2022-10-09T22:46:28.108Z,4.82
2022-10-09T22:48:56.244Z,3.17
2022-10-09T22:51:28.782Z,2.25
2022-10-09T22:53:57.551Z,3.53
2022-10-09T22:56:30.793Z,5.63
2022-10-09T22:58:58.557Z,6.35
2022-10-09T23:01:39.384Z,4.25
2022-10-09T23:04:10.273Z,6.05
2022-10-09T23:06:38.223Z,3.42
2022-10-09T23:09:07.583Z,6.07
2022-10-09T23:11:35.511Z,3.83
2022-10-09T23:14:04.134Z,1.48
2022-10-09T23:16:31.961Z,9.35
2022-10-09T23:19:06.139Z,5.80
2022-10-09T23:21:34.328Z,7.65
2022-10-09T23:24:02.072Z,2.00
2022-10-09T23:26:31.260Z,2.92
2022-10-09T23:29:07.293Z,2.95
2022-10-09T23:31:36.016Z,4.28
2022-10-09T23:34:04.511Z,2.17
2022-10-09T23:36:32.372Z,4.10
2022-10-09T23:39:01.594Z,3.30
2022-10-09T23:41:29.555Z,11.00
2022-10-09T23:43:57.290Z,3.67
2022-10-09T23:46:26.035Z,3.83
2022-10-09T23:48:54.291Z,2.42
2022-10-09T23:51:24.079Z,5.85
2022-10-09T23:53:51.878Z,5.03
2022-10-09T23:56:23.855Z,5.90
2022-10-09T23:58:52.366Z,3.70
